Time;durP1;ratioP1;P1;durP2;ratioP2;P2;SDS_P1;SDS_P2;PMS_P1;PMS_P2;Temp;Humidity;BMP_temperature;BMP_pressure;BME280_temperature;BME280_humidity;BME280_pressure;Samples;Min_cycle;Max_cycle;Signal;HPM_P1;HPM_P2
2023/08/20 00:01:22;;;;;;;8.65;2.72;;;27.10;88.70;;;;;;7390188;19;20046;-81
2023/08/20 00:03:52;;;;;;;11.38;2.78;;;27.10;88.20;;;;;;7391038;19;20006;-80
2023/08/20 00:06:22;;;;;;;6.82;2.97;;;27.10;88.30;;;;;;7389421;19;20007;-81
2023/08/20 00:08:51;;;;;;;9.55;3.15;;;27.00;88.30;;;;;;7390075;19;20075;-81
2023/08/20 00:11:20;;;;;;;9.60;2.70;;;26.90;87.90;;;;;;7411543;19;20107;-79
2023/08/20 00:13:52;;;;;;;10.68;3.40;;;26.90;88.00;;;;;;7390606;19;20046;-81
2023/08/20 00:19:32;;;;;;;6.63;3.35;;;26.90;88.00;;;;;;7388694;19;20005;-80
2023/08/20 00:22:01;;;;;;;19.13;3.22;;;26.90;87.20;;;;;;7390885;19;20014;-80
2023/08/20 00:24:31;;;;;;;13.48;3.25;;;26.80;86.50;;;;;;7388936;19;19998;-81
2023/08/20 00:26:59;;;;;;;10.05;2.67;;;26.80;85.60;;;;;;7390007;19;20014;-81
2023/08/20 00:29:31;;;;;;;14.38;3.03;;;26.70;86.00;;;;;;7410749;19;20007;-81
2023/08/20 00:31:59;;;;;;;15.90;3.13;;;26.70;86.70;;;;;;7388755;19;20006;-80
2023/08/20 00:34:28;;;;;;;12.13;3.40;;;26.70;86.80;;;;;;7390418;19;20007;-80
2023/08/20 00:36:57;;;;;;;12.82;3.38;;;26.60;86.90;;;;;;7390389;19;20002;-80
2023/08/20 00:39:26;;;;;;;13.95;3.28;;;26.60;86.60;;;;;;7391894;19;20007;-81
2023/08/20 00:41:55;;;;;;;7.40;3.38;;;26.60;86.20;;;;;;7400293;19;20007;-81
2023/08/20 00:44:30;;;;;;;12.60;3.22;;;26.60;86.40;;;;;;7422247;19;20015;-80
2023/08/20 00:47:00;;;;;;;8.25;3.08;;;26.50;85.00;;;;;;7401073;19;19999;-80
2023/08/20 00:49:30;;;;;;;9.40;3.20;;;26.50;85.30;;;;;;7402760;19;20034;-80
2023/08/20 00:52:00;;;;;;;13.88;3.47;;;26.50;84.70;;;;;;7390710;19;20007;-81
2023/08/20 00:54:30;;;;;;;15.68;3.00;;;26.50;84.90;;;;;;7388554;19;20002;-80
2023/08/20 00:56:59;;;;;;;12.75;3.10;;;26.40;85.60;;;;;;7388153;19;20007;-80
2023/08/20 00:59:31;;;;;;;9.43;2.97;;;26.40;85.90;;;;;;7409651;19;20027;-81
2023/08/20 01:02:02;;;;;;;12.07;2.85;;;26.40;85.90;;;;;;7390535;19;20054;-82
2023/08/20 01:04:33;;;;;;;12.13;3.30;;;26.40;85.90;;;;;;7394781;19;20010;-80
2023/08/20 01:07:11;;;;;;;10.43;3.35;;;26.40;85.20;;;;;;7393985;19;20003;-81
2023/08/20 01:09:53;;;;;;;11.90;3.08;;;26.30;84.70;;;;;;7395529;19;20010;-82
2023/08/20 01:12:22;;;;;;;;;;;26.20;84.30;;;;;;7395941;19;20002;-83
2023/08/20 01:14:53;;;;;;;9.32;3.20;;;26.20;84.20;;;;;;7392462;19;19927;-80
2023/08/20 01:17:24;;;;;;;12.10;2.92;;;26.20;84.40;;;;;;7417526;19;20018;-81
2023/08/20 01:19:53;;;;;;;12.52;2.95;;;26.10;84.20;;;;;;7392181;19;20014;-81
2023/08/20 01:22:51;;;;;;;9.57;2.90;;;26.10;83.90;;;;;;7395387;19;19999;-81
2023/08/20 01:25:32;;;;;;;11.10;2.88;;;26.10;85.10;;;;;;7394531;19;20002;-80
2023/08/20 01:28:11;;;;;;;10.88;2.78;;;26.00;84.60;;;;;;7396039;19;20006;-81
2023/08/20 01:30:44;;;;;;;12.57;3.10;;;26.10;84.40;;;;;;7392506;19;20002;-79
2023/08/20 01:33:13;;;;;;;15.10;3.17;;;26.10;83.80;;;;;;7392897;19;20029;-79
2023/08/20 01:35:42;;;;;;;9.98;2.55;;;26.00;84.10;;;;;;7392831;19;20014;-81
2023/08/20 01:38:11;;;;;;;14.82;2.72;;;26.00;84.30;;;;;;7417174;19;20007;-79
2023/08/20 01:40:40;;;;;;;13.35;3.03;;;25.90;84.20;;;;;;7393742;19;20070;-78
2023/08/20 01:43:09;;;;;;;12.77;3.03;;;26.00;84.30;;;;;;7394011;19;20007;-80
2023/08/20 01:45:37;;;;;;;14.40;2.75;;;25.90;84.10;;;;;;7393834;19;20015;-80
2023/08/20 01:48:09;;;;;;;8.40;2.47;;;25.90;83.90;;;;;;7394883;19;20414;-79
2023/08/20 01:50:38;;;;;;;16.33;2.53;;;25.80;84.00;;;;;;7412990;19;20478;-78
2023/08/20 01:53:07;;;;;;;19.42;3.38;;;25.80;84.10;;;;;;7392934;19;20006;-79
2023/08/20 01:55:36;;;;;;;12.75;2.58;;;25.80;84.30;;;;;;7395191;19;20011;-79
2023/08/20 01:58:05;;;;;;;8.88;2.80;;;25.80;84.10;;;;;;7395757;19;20022;-79
2023/08/20 02:00:34;;;;;;;9.93;2.50;;;25.80;84.10;;;;;;7393856;19;20042;-80
2023/08/20 02:03:03;;;;;;;10.45;2.67;;;25.70;84.00;;;;;;7393504;19;20033;-81
2023/08/20 02:05:35;;;;;;;10.18;2.45;;;25.70;84.00;;;;;;7416410;19;20007;-80
2023/08/20 02:08:03;;;;;;;11.20;2.67;;;25.70;83.80;;;;;;7395026;19;20010;-80
2023/08/20 02:10:32;;;;;;;13.25;2.63;;;25.70;83.60;;;;;;7394255;19;20003;-80
2023/08/20 02:13:01;;;;;;;10.10;2.70;;;25.70;83.40;;;;;;7391475;19;20027;-79
2023/08/20 02:15:30;;;;;;;9.75;2.85;;;25.70;83.60;;;;;;7392443;19;20003;-79
2023/08/20 02:18:01;;;;;;;12.45;2.92;;;25.60;83.30;;;;;;7392525;19;20247;-79
2023/08/20 02:20:29;;;;;;;12.38;2.53;;;25.60;83.30;;;;;;7412459;19;20011;-78
2023/08/20 02:23:01;;;;;;;13.45;2.80;;;25.50;83.40;;;;;;7392336;19;20045;-80
2023/08/20 02:25:29;;;;;;;6.40;2.65;;;25.50;83.60;;;;;;7391250;19;20010;-80
2023/08/20 02:27:58;;;;;;;15.50;2.83;;;25.50;83.70;;;;;;7390834;19;20258;-78
2023/08/20 02:30:27;;;;;;;12.27;2.65;;;25.40;83.70;;;;;;7389277;19;20019;-79
2023/08/20 02:32:55;;;;;;;13.48;2.63;;;25.40;84.10;;;;;;7389820;19;20023;-78
2023/08/20 02:35:24;;;;;;;10.25;3.17;;;25.30;84.20;;;;;;7425513;19;20017;-79
2023/08/20 02:37:53;;;;;;;14.27;2.88;;;25.30;84.20;;;;;;7396975;19;20002;-79
2023/08/20 02:40:24;;;;;;;19.65;3.13;;;25.30;84.20;;;;;;7393135;19;20628;-79
2023/08/20 02:42:53;;;;;;;13.05;2.95;;;25.30;84.40;;;;;;7390936;19;20010;-78
2023/08/20 02:45:22;;;;;;;11.98;3.08;;;25.30;84.30;;;;;;7388595;19;20011;-78
2023/08/20 02:47:51;;;;;;;12.02;2.80;;;25.30;84.20;;;;;;7387656;19;20003;-78
2023/08/20 02:50:19;;;;;;;13.27;2.90;;;25.30;84.20;;;;;;7408416;19;20260;-78
2023/08/20 02:52:48;;;;;;;10.65;2.53;;;25.20;84.30;;;;;;7390258;19;20014;-78
2023/08/20 02:55:17;;;;;;;15.68;2.63;;;25.20;84.40;;;;;;7390227;19;20018;-79
2023/08/20 02:57:48;;;;;;;8.52;2.80;;;25.20;84.70;;;;;;7391375;19;20019;-80
2023/08/20 03:00:17;;;;;;;9.40;2.30;;;25.20;84.70;;;;;;7392156;19;20113;-79
2023/08/20 03:02:46;;;;;;;18.60;2.90;;;25.20;84.60;;;;;;7392790;19;20017;-79
2023/08/20 03:05:15;;;;;;;9.75;2.88;;;25.20;84.60;;;;;;7415186;19;20243;-79
2023/08/20 03:07:44;;;;;;;10.20;2.88;;;25.20;84.40;;;;;;7391299;19;20003;-79
2023/08/20 03:10:13;;;;;;;14.10;2.78;;;25.10;84.70;;;;;;7392070;19;19999;-79
2023/08/20 03:12:41;;;;;;;12.82;2.60;;;25.10;84.60;;;;;;7393127;19;20037;-81
2023/08/20 03:15:13;;;;;;;14.60;2.85;;;25.10;84.50;;;;;;7391101;19;20003;-79
2023/08/20 03:17:42;;;;;;;13.23;2.90;;;25.00;84.70;;;;;;7393194;19;20006;-79
2023/08/20 03:20:12;;;;;;;15.38;2.60;;;25.00;84.90;;;;;;7407763;19;20554;-79
2023/08/20 03:22:41;;;;;;;13.23;2.73;;;25.00;85.10;;;;;;7393841;19;20012;-80
2023/08/20 03:25:11;;;;;;;12.73;2.72;;;25.00;85.10;;;;;;7390075;19;20354;-80
2023/08/20 03:27:39;;;;;;;8.68;2.58;;;24.90;85.50;;;;;;7392437;19;20017;-80
2023/08/20 03:30:09;;;;;;;12.23;3.03;;;24.80;85.80;;;;;;7393612;19;20006;-80
2023/08/20 03:32:41;;;;;;;12.40;3.30;;;24.80;86.20;;;;;;7418467;19;20022;-81
2023/08/20 03:35:11;;;;;;;13.57;2.80;;;24.80;86.30;;;;;;7394899;19;20050;-80
2023/08/20 03:37:39;;;;;;;9.02;2.65;;;24.80;86.30;;;;;;7391403;19;20030;-79
2023/08/20 03:40:09;;;;;;;16.23;2.92;;;24.90;86.20;;;;;;7391590;19;20003;-80
2023/08/20 03:42:38;;;;;;;7.97;2.65;;;24.90;85.90;;;;;;7391609;19;20003;-80
2023/08/20 03:45:08;;;;;;;8.60;2.95;;;24.90;85.70;;;;;;7392261;19;20011;-81
2023/08/20 03:47:37;;;;;;;12.20;2.80;;;24.80;85.40;;;;;;7414626;19;20244;-79
2023/08/20 03:50:09;;;;;;;9.93;2.72;;;24.80;85.50;;;;;;7390516;19;20011;-79
2023/08/20 03:52:39;;;;;;;11.45;2.88;;;24.80;85.70;;;;;;7390308;19;20010;-80
2023/08/20 03:55:08;;;;;;;14.05;3.00;;;24.80;85.70;;;;;;7389921;19;20016;-79
2023/08/20 03:57:37;;;;;;;12.65;2.60;;;24.80;85.80;;;;;;7390124;19;20409;-80
2023/08/20 04:00:08;;;;;;;8.15;2.50;;;24.80;85.80;;;;;;7390967;19;20010;-80
2023/08/20 04:02:37;;;;;;;5.95;2.38;;;24.80;85.70;;;;;;7414390;19;20003;-79
2023/08/20 04:05:09;;;;;;;11.88;2.67;;;24.80;85.70;;;;;;7390988;19;20003;-79
2023/08/20 04:07:38;;;;;;;12.60;3.58;;;24.80;85.80;;;;;;7389592;19;20342;-78
2023/08/20 04:10:07;;;;;;;14.02;3.00;;;24.70;85.80;;;;;;7389296;19;20582;-80
2023/08/20 04:12:36;;;;;;;9.63;2.95;;;24.70;86.00;;;;;;7388389;19;20002;-79
2023/08/20 04:15:06;;;;;;;8.27;3.22;;;24.70;85.90;;;;;;7386241;19;20030;-80
2023/08/20 04:17:34;;;;;;;13.02;2.50;;;24.70;86.00;;;;;;7406139;19;20041;-79
2023/08/20 04:20:05;;;;;;;6.20;2.78;;;24.70;86.10;;;;;;7383840;19;20377;-80
2023/08/20 04:22:37;;;;;;;10.13;2.95;;;24.70;86.20;;;;;;7386039;19;20013;-78
2023/08/20 04:25:06;;;;;;;10.57;2.47;;;24.70;86.40;;;;;;7383629;19;20003;-79
2023/08/20 04:27:34;;;;;;;11.93;2.72;;;24.70;86.40;;;;;;7392642;19;20014;-79
2023/08/20 04:30:06;;;;;;;12.43;3.00;;;24.70;86.30;;;;;;7391229;19;20017;-79
2023/08/20 04:32:35;;;;;;;13.55;2.55;;;24.70;86.40;;;;;;7414347;19;20014;-78
2023/08/20 04:35:04;;;;;;;16.90;3.25;;;24.70;86.40;;;;;;7390204;19;20010;-78
2023/08/20 04:37:35;;;;;;;14.05;2.83;;;24.70;86.20;;;;;;7386085;19;20070;-79
2023/08/20 04:40:04;;;;;;;;;;;24.70;86.10;;;;;;7387271;19;20030;-80
2023/08/20 04:42:33;;;;;;;12.40;3.50;;;24.70;86.10;;;;;;7386627;19;19914;-80
2023/08/20 04:45:02;;;;;;;12.85;2.60;;;24.70;86.10;;;;;;7388636;19;20351;-80
2023/08/20 04:47:30;;;;;;;12.60;2.78;;;24.60;87.00;;;;;;7405879;19;20003;-79
2023/08/20 04:49:59;;;;;;;11.60;2.40;;;24.60;86.60;;;;;;7385785;19;20011;-79
2023/08/20 04:52:28;;;;;;;9.40;2.60;;;24.60;86.80;;;;;;7386911;19;20010;-79
2023/08/20 04:54:59;;;;;;;18.73;2.72;;;24.60;86.80;;;;;;7387453;19;20011;-80
2023/08/20 04:57:28;;;;;;;6.50;2.42;;;24.60;86.60;;;;;;7386858;19;20018;-78
2023/08/20 04:59:56;;;;;;;11.32;3.17;;;24.60;86.80;;;;;;7386852;19;20260;-79
2023/08/20 05:02:25;;;;;;;13.68;2.47;;;24.60;86.80;;;;;;7410085;19;20029;-79
2023/08/20 05:04:54;;;;;;;9.45;2.88;;;24.50;87.00;;;;;;7389345;19;20007;-79
2023/08/20 05:07:23;;;;;;;12.95;3.50;;;24.50;86.90;;;;;;7388006;19;20009;-79
2023/08/20 05:09:53;;;;;;;11.63;2.80;;;24.60;87.00;;;;;;7387127;19;20010;-79
2023/08/20 05:12:24;;;;;;;12.63;3.28;;;24.60;87.00;;;;;;7388341;19;19999;-79
2023/08/20 05:14:53;;;;;;;9.85;2.50;;;24.60;87.20;;;;;;7386620;19;20014;-79
2023/08/20 05:17:21;;;;;;;15.38;3.08;;;24.60;86.90;;;;;;7409064;19;20007;-79
2023/08/20 05:19:50;;;;;;;9.35;2.88;;;24.50;87.00;;;;;;7384517;19;20018;-79
2023/08/20 05:22:19;;;;;;;10.18;3.40;;;24.50;87.00;;;;;;7384225;19;20362;-79
2023/08/20 05:24:48;;;;;;;12.00;2.55;;;24.50;87.00;;;;;;7384357;19;20012;-80
2023/08/20 05:27:18;;;;;;;7.93;2.60;;;24.50;86.90;;;;;;7386620;19;20019;-79
2023/08/20 05:29:50;;;;;;;6.07;2.58;;;24.50;86.90;;;;;;7385001;19;20010;-79
2023/08/20 05:32:18;;;;;;;;;;;24.50;86.80;;;;;;7408559;19;20018;-79
2023/08/20 05:34:47;;;;;;;9.38;2.63;;;24.50;87.00;;;;;;7382936;19;19906;-79
2023/08/20 05:37:16;;;;;;;7.53;2.13;;;24.60;86.70;;;;;;7385964;19;20010;-80
2023/08/20 05:39:46;;;;;;;7.80;2.60;;;24.60;86.90;;;;;;7385848;19;20434;-79
2023/08/20 05:42:15;;;;;;;11.77;2.38;;;24.60;86.90;;;;;;7386287;19;20028;-78
2023/08/20 05:44:43;;;;;;;8.10;2.65;;;24.60;86.90;;;;;;7381496;19;20007;-78
2023/08/20 05:47:15;;;;;;;8.95;2.60;;;24.60;87.10;;;;;;7405196;19;20039;-80
2023/08/20 05:49:43;;;;;;;;;;;24.60;87.20;;;;;;7391695;19;20003;-78
2023/08/20 05:52:12;;;;;;;5.15;2.50;;;24.70;87.20;;;;;;7391370;19;20241;-78
2023/08/20 05:54:41;;;;;;;8.55;2.55;;;24.70;87.10;;;;;;7392001;19;20006;-79
2023/08/20 05:57:10;;;;;;;6.68;2.50;;;24.70;87.20;;;;;;7391913;19;20007;-78
2023/08/20 05:59:38;;;;;;;10.00;2.65;;;24.70;87.30;;;;;;7412877;19;20108;-78
2023/08/20 06:02:07;;;;;;;6.13;2.90;;;24.80;87.40;;;;;;7393755;19;20010;-79
2023/08/20 06:04:38;;;;;;;7.50;2.92;;;24.80;87.50;;;;;;7393103;19;20034;-81
2023/08/20 06:07:07;;;;;;;8.40;2.83;;;24.80;87.40;;;;;;7394165;19;20358;-80
2023/08/20 06:09:36;;;;;;;7.97;2.78;;;24.90;87.40;;;;;;7394082;19;20007;-80
2023/08/20 06:12:05;;;;;;;8.90;2.65;;;24.90;87.30;;;;;;7393596;19;20014;-80
2023/08/20 06:14:33;;;;;;;19.08;2.83;;;25.00;87.40;;;;;;7416076;19;20038;-80
2023/08/20 06:17:02;;;;;;;12.40;3.15;;;25.00;87.20;;;;;;7393936;19;20002;-79
2023/08/20 06:19:31;;;;;;;9.25;2.80;;;25.00;87.30;;;;;;7391157;19;20003;-78
2023/08/20 06:22:03;;;;;;;6.53;2.55;;;25.00;87.40;;;;;;7390759;19;20019;-78
2023/08/20 06:24:32;;;;;;;8.20;2.35;;;25.10;87.50;;;;;;7405142;19;20007;-79
2023/08/20 06:27:00;;;;;;;8.55;2.85;;;25.10;87.20;;;;;;7407694;19;20036;-80
2023/08/20 06:29:29;;;;;;;12.70;3.08;;;25.10;87.20;;;;;;7424685;19;20007;-79
2023/08/20 06:31:58;;;;;;;8.48;3.00;;;25.20;87.40;;;;;;7403969;19;20007;-80
2023/08/20 06:34:27;;;;;;;8.10;2.58;;;25.20;87.40;;;;;;7393756;19;20031;-79
2023/08/20 06:36:56;;;;;;;7.68;2.88;;;25.30;87.20;;;;;;7391474;19;20014;-79
2023/08/20 06:39:29;;;;;;;6.40;2.60;;;25.30;86.90;;;;;;7390150;19;20007;-79
2023/08/20 06:41:58;;;;;;;10.95;2.65;;;25.30;86.90;;;;;;7392109;19;20034;-80
2023/08/20 06:44:27;;;;;;;7.35;2.67;;;25.40;87.10;;;;;;7411567;19;20014;-79
2023/08/20 06:46:55;;;;;;;15.63;3.00;;;25.40;87.50;;;;;;7392782;19;20010;-80
2023/08/20 06:49:24;;;;;;;8.70;2.70;;;25.50;87.80;;;;;;7391422;19;20013;-80
2023/08/20 06:51:53;;;;;;;9.70;3.03;;;25.50;87.80;;;;;;7390195;19;20003;-79
2023/08/20 06:54:22;;;;;;;9.13;2.70;;;25.60;88.00;;;;;;7389716;19;20003;-79
2023/08/20 06:56:53;;;;;;;6.93;2.55;;;25.60;87.90;;;;;;7391695;19;20011;-80
2023/08/20 06:59:22;;;;;;;12.68;2.92;;;25.60;87.90;;;;;;7409166;19;20015;-78
2023/08/20 07:01:51;;;;;;;9.88;2.90;;;25.70;88.00;;;;;;7389029;19;20274;-78
2023/08/20 07:04:20;;;;;;;8.10;3.30;;;25.70;88.00;;;;;;7390005;19;20209;-78
2023/08/20 07:06:48;;;;;;;10.43;3.00;;;25.80;87.80;;;;;;7390843;19;20226;-79
2023/08/20 07:09:17;;;;;;;7.75;2.75;;;25.90;87.50;;;;;;7388830;19;20006;-79
2023/08/20 07:11:46;;;;;;;8.90;2.90;;;25.90;87.10;;;;;;7390188;19;20039;-79
2023/08/20 07:14:17;;;;;;;12.68;2.63;;;25.90;86.90;;;;;;7409714;19;20009;-79
2023/08/20 07:16:46;;;;;;;7.53;2.50;;;25.90;86.90;;;;;;7388828;19;20063;-79
2023/08/20 07:19:15;;;;;;;9.98;2.90;;;26.00;86.90;;;;;;7392452;19;20014;-78
2023/08/20 07:21:43;;;;;;;12.90;3.25;;;26.00;86.70;;;;;;7389069;19;20022;-79
2023/08/20 07:24:12;;;;;;;10.65;3.28;;;26.10;86.70;;;;;;7389257;19;20002;-79
2023/08/20 07:26:42;;;;;;;9.23;3.25;;;26.10;86.60;;;;;;7404346;19;20007;-79
2023/08/20 07:29:10;;;;;;;6.78;3.00;;;26.10;86.60;;;;;;7409594;19;20034;-78
2023/08/20 07:31:42;;;;;;;6.55;3.08;;;26.20;86.80;;;;;;7388833;19;20024;-79
2023/08/20 07:34:10;;;;;;;14.50;3.25;;;26.20;86.80;;;;;;7386936;19;20016;-79
2023/08/20 07:36:39;;;;;;;11.52;3.10;;;26.30;86.70;;;;;;7386612;19;20019;-79
2023/08/20 07:39:08;;;;;;;9.13;3.00;;;26.30;86.60;;;;;;7385839;19;20050;-79
2023/08/20 07:41:37;;;;;;;8.65;2.80;;;26.30;86.80;;;;;;7407268;19;20358;-78
2023/08/20 07:44:07;;;;;;;8.85;3.25;;;26.40;87.10;;;;;;7385085;19;20023;-79
2023/08/20 07:46:35;;;;;;;8.82;3.03;;;26.40;87.20;;;;;;7383654;19;20007;-79
2023/08/20 07:49:07;;;;;;;9.05;3.22;;;26.40;87.30;;;;;;7385337;19;20065;-79
2023/08/20 07:51:36;;;;;;;9.45;3.25;;;26.50;87.50;;;;;;7384851;19;20007;-78
2023/08/20 07:54:05;;;;;;;11.23;3.20;;;26.60;87.50;;;;;;7384816;19;20006;-79
2023/08/20 07:56:34;;;;;;;6.25;2.85;;;26.60;87.70;;;;;;7407638;19;20011;-79
2023/08/20 07:59:03;;;;;;;9.98;3.35;;;26.60;87.70;;;;;;7385469;19;20010;-80
2023/08/20 08:01:32;;;;;;;8.15;3.05;;;26.70;87.60;;;;;;7384554;19;20350;-78
2023/08/20 08:04:01;;;;;;;7.68;3.42;;;26.70;87.70;;;;;;7384169;19;20078;-79
2023/08/20 08:06:32;;;;;;;11.15;3.72;;;26.70;87.90;;;;;;7385788;19;20010;-79
2023/08/20 08:09:20;;;;;;;5.38;3.33;;;26.70;88.10;;;;;;7384919;19;20045;-79
2023/08/20 08:11:49;;;;;;;8.13;3.78;;;26.80;88.40;;;;;;7383887;19;20010;-79
2023/08/20 08:14:18;;;;;;;9.35;3.63;;;26.80;88.30;;;;;;7405703;19;20003;-79
2023/08/20 08:16:48;;;;;;;7.90;3.35;;;26.80;88.30;;;;;;7384561;19;20010;-80
2023/08/20 08:19:17;;;;;;;10.65;3.53;;;26.90;88.70;;;;;;7388280;19;20015;-79
2023/08/20 08:21:49;;;;;;;8.07;3.33;;;26.90;88.60;;;;;;7399388;19;20011;-80
2023/08/20 08:24:18;;;;;;;13.30;3.72;;;26.90;88.70;;;;;;7405289;19;20003;-79
2023/08/20 08:26:46;;;;;;;10.55;3.72;;;27.00;88.70;;;;;;7404513;19;20007;-79
2023/08/20 08:29:15;;;;;;;16.05;5.53;;;27.10;89.40;;;;;;7426235;19;20010;-81
2023/08/20 08:31:44;;;;;;;12.00;4.95;;;27.10;88.40;;;;;;7388702;19;20006;-80
2023/08/20 08:34:14;;;;;;;13.68;5.40;;;27.10;88.10;;;;;;7386973;19;20014;-80
2023/08/20 08:36:42;;;;;;;8.32;3.83;;;27.20;88.10;;;;;;7385342;19;20009;-80
2023/08/20 08:39:15;;;;;;;6.88;3.42;;;27.20;88.20;;;;;;7385521;19;19999;-80
2023/08/20 08:41:45;;;;;;;6.93;3.20;;;27.30;88.20;;;;;;7383917;19;20010;-79
2023/08/20 08:44:14;;;;;;;7.85;3.38;;;27.30;88.10;;;;;;7404529;19;20002;-78
2023/08/20 08:46:43;;;;;;;5.88;3.00;;;27.30;87.90;;;;;;7385374;19;20018;-78
2023/08/20 08:49:12;;;;;;;9.55;3.08;;;27.40;87.90;;;;;;7385886;19;20239;-79
2023/08/20 08:51:44;;;;;;;9.38;3.25;;;27.50;87.80;;;;;;7384780;19;20018;-80
2023/08/20 08:54:18;;;;;;;11.07;3.63;;;27.40;86.60;;;;;;7385244;19;20007;-79
2023/08/20 08:56:46;;;;;;;11.98;3.13;;;27.50;86.70;;;;;;7384740;19;20003;-79
2023/08/20 08:59:15;;;;;;;8.80;3.40;;;27.50;86.90;;;;;;7408419;19;20011;-80
2023/08/20 09:01:44;;;;;;;10.93;3.30;;;27.50;87.50;;;;;;7385751;19;20002;-79
2023/08/20 09:04:13;;;;;;;7.43;2.88;;;27.50;87.70;;;;;;7385513;19;20039;-79
2023/08/20 09:06:49;;;;;;;7.28;3.17;;;27.50;87.50;;;;;;7388260;19;20010;-79
2023/08/20 09:09:21;;;;;;;13.07;3.17;;;27.50;87.20;;;;;;7386249;19;20007;-79
2023/08/20 09:11:50;;;;;;;7.10;3.40;;;27.60;87.10;;;;;;7385135;19;20011;-79
2023/08/20 09:14:24;;;;;;;7.32;2.92;;;27.60;86.30;;;;;;7404782;19;20024;-78
2023/08/20 09:17:01;;;;;;;5.35;2.95;;;27.60;86.80;;;;;;7383647;19;20011;-79
2023/08/20 09:19:31;;;;;;;9.15;2.60;;;27.60;86.40;;;;;;7382798;19;20015;-79
2023/08/20 09:22:01;;;;;;;8.90;2.78;;;27.70;87.20;;;;;;7384590;19;20011;-80
2023/08/20 09:24:36;;;;;;;8.77;2.75;;;27.70;86.00;;;;;;7386841;19;20208;-79
2023/08/20 09:27:11;;;;;;;8.13;2.63;;;27.80;86.10;;;;;;7391439;19;20010;-81
2023/08/20 09:33:16;;;;;;;7.50;3.28;;;28.00;85.50;;;;;;7282737;19;2004427;-82
2023/08/20 09:36:31;;;;;;;;;;;;;;;;;;;;;
2023/08/20 09:39:00;;;;;;;9.70;3.50;;;28.10;85.40;;;;;;7388217;19;20435;-82
2023/08/20 09:41:59;;;;;;;10.70;3.25;;;28.10;84.70;;;;;;7407728;19;20010;-81
2023/08/20 10:09:16;;;;;;;6.63;2.75;;;27.90;84.10;;;;;;7378945;19;20007;-80
2023/08/20 10:11:45;;;;;;;8.10;2.80;;;28.00;84.50;;;;;;7385357;19;20030;-80
2023/08/20 10:14:30;;;;;;;5.20;2.65;;;28.00;85.00;;;;;;7408880;19;20011;-82
2023/08/20 10:17:20;;;;;;;6.07;2.60;;;28.00;85.00;;;;;;7405222;19;20377;-80
2023/08/20 10:19:53;;;;;;;7.07;2.70;;;28.10;85.40;;;;;;7408849;19;20079;-78
2023/08/20 10:22:24;;;;;;;7.47;2.85;;;28.10;83.60;;;;;;7407819;19;20002;-80
2023/08/20 10:25:00;;;;;;;7.03;3.08;;;28.10;83.40;;;;;;7407066;19;20030;-79
2023/08/20 10:27:38;;;;;;;6.78;3.08;;;28.10;84.50;;;;;;7389126;19;20017;-79
2023/08/20 10:30:49;;;;;;;6.00;3.10;;;28.10;83.80;;;;;;7384709;19;20034;-80
2023/08/20 10:33:18;;;;;;;9.70;2.80;;;28.20;84.10;;;;;;7363019;19;20011;-79
2023/08/20 10:48:19;;;;;;;5.25;2.35;;;28.40;81.90;;;;;;7385093;19;20011;-78
2023/08/20 10:50:49;;;;;;;7.50;2.90;;;28.50;82.00;;;;;;7384113;19;20350;-77
2023/08/20 10:53:17;;;;;;;5.90;3.10;;;28.40;82.50;;;;;;7403285;19;20578;-78
2023/08/20 10:55:51;;;;;;;6.43;2.60;;;28.50;82.80;;;;;;7380157;19;20006;-78
2023/08/20 10:58:20;;;;;;;6.13;2.67;;;28.60;81.50;;;;;;7382891;19;20007;-77
2023/08/20 11:01:20;;;;;;;5.93;2.70;;;28.60;81.30;;;;;;7381940;19;20074;-77
2023/08/20 11:03:52;;;;;;;5.28;2.75;;;28.80;81.40;;;;;;7382162;19;20015;-77
2023/08/20 11:06:21;;;;;;;7.32;2.30;;;28.80;81.90;;;;;;7382462;19;20002;-78
2023/08/20 11:08:50;;;;;;;6.88;2.50;;;28.80;81.00;;;;;;7380030;19;20011;-76
2023/08/20 11:11:21;;;;;;;9.05;2.88;;;28.90;80.70;;;;;;7401117;19;20017;-77
2023/08/20 11:13:49;;;;;;;5.90;2.40;;;28.90;80.60;;;;;;7382046;19;20020;-77
2023/08/20 11:16:21;;;;;;;4.00;2.22;;;29.00;80.80;;;;;;7384476;19;20290;-77
2023/08/20 11:18:50;;;;;;;6.10;2.95;;;29.00;80.60;;;;;;7382232;19;20062;-77
2023/08/20 11:21:19;;;;;;;6.47;2.50;;;29.10;79.10;;;;;;7381699;19;20002;-77
2023/08/20 11:23:49;;;;;;;11.10;2.38;;;29.10;78.60;;;;;;7381585;19;20058;-76
2023/08/20 11:26:20;;;;;;;9.52;2.50;;;29.20;78.00;;;;;;7399959;19;20031;-76
2023/08/20 11:28:48;;;;;;;9.80;2.63;;;29.20;78.30;;;;;;7380211;19;20024;-76
2023/08/20 11:31:20;;;;;;;6.63;2.42;;;29.20;79.10;;;;;;7380765;19;20070;-76
2023/08/20 11:33:48;;;;;;;4.07;2.50;;;29.30;79.30;;;;;;7380588;19;20307;-76
2023/08/20 11:36:18;;;;;;;5.88;2.80;;;29.30;78.70;;;;;;7380595;19;20055;-75
2023/08/20 11:38:53;;;;;;;2.72;2.13;;;29.40;79.30;;;;;;7380467;19;20282;-77
2023/08/20 11:41:22;;;;;;;6.05;2.10;;;29.40;77.70;;;;;;7402725;19;20031;-77
2023/08/20 11:43:51;;;;;;;10.32;2.20;;;29.40;77.30;;;;;;7379402;19;20019;-76
2023/08/20 11:46:25;;;;;;;4.57;2.20;;;29.50;77.10;;;;;;7377681;19;20037;-75
2023/08/20 11:49:03;;;;;;;5.40;1.98;;;29.50;77.10;;;;;;7379875;19;20025;-76
2023/08/20 11:51:32;;;;;;;6.60;2.10;;;29.60;76.40;;;;;;7380755;19;20089;-76
2023/08/20 11:54:01;;;;;;;3.47;1.92;;;29.60;75.40;;;;;;7378350;19;20028;-75
2023/08/20 11:56:30;;;;;;;4.65;2.22;;;29.70;77.40;;;;;;7400474;19;20066;-76
2023/08/20 11:59:02;;;;;;;6.22;2.25;;;29.70;76.10;;;;;;7378787;19;20097;-76
2023/08/20 12:01:35;;;;;;;12.10;2.33;;;29.80;75.00;;;;;;7379289;19;20005;-76
2023/08/20 12:04:07;;;;;;;5.93;2.22;;;29.90;75.50;;;;;;7380040;19;20006;-76
2023/08/20 12:06:36;;;;;;;6.72;2.20;;;29.90;75.40;;;;;;7381246;19;20244;-76
2023/08/20 12:09:21;;;;;;;5.40;2.47;;;30.00;76.00;;;;;;7387023;19;20027;-77
2023/08/20 12:11:55;;;;;;;8.65;2.45;;;30.00;77.10;;;;;;7403245;19;20015;-78
2023/08/20 12:14:24;;;;;;;5.63;2.30;;;29.90;75.70;;;;;;7427025;19;20009;-77
2023/08/20 12:16:57;;;;;;;6.68;2.47;;;29.90;76.00;;;;;;7387068;19;20022;-76
2023/08/20 12:19:26;;;;;;;7.07;2.38;;;29.90;76.30;;;;;;7380298;19;20010;-77
2023/08/20 12:21:55;;;;;;;9.02;2.42;;;30.00;76.30;;;;;;7380012;19;20011;-77
2023/08/20 12:24:25;;;;;;;7.80;2.30;;;30.10;75.70;;;;;;7379937;19;20033;-77
2023/08/20 12:26:54;;;;;;;5.70;2.60;;;30.20;75.50;;;;;;7378956;19;20414;-76
2023/08/20 12:29:26;;;;;;;9.25;2.47;;;30.20;76.10;;;;;;7401456;19;20010;-77
2023/08/20 12:31:58;;;;;;;8.88;2.42;;;30.30;75.80;;;;;;7380886;19;20024;-77
2023/08/20 12:34:29;;;;;;;5.47;2.47;;;30.50;75.80;;;;;;7377665;19;20011;-77
2023/08/20 12:36:59;;;;;;;5.00;2.47;;;30.60;75.90;;;;;;7382217;19;20226;-79
2023/08/20 12:39:28;;;;;;;6.35;2.35;;;30.90;76.10;;;;;;7379617;19;20346;-77
2023/08/20 12:41:57;;;;;;;7.30;2.40;;;31.10;75.20;;;;;;7385787;19;20327;-77
2023/08/20 12:44:26;;;;;;;4.82;2.40;;;31.30;74.30;;;;;;7409778;19;20010;-79
2023/08/20 12:47:00;;;;;;;4.28;1.95;;;31.30;72.90;;;;;;7389923;19;20003;-78
2023/08/20 12:49:29;;;;;;;7.72;2.35;;;31.20;72.20;;;;;;7389639;19;20024;-79
2023/08/20 12:51:58;;;;;;;9.75;2.40;;;31.10;72.40;;;;;;7390740;19;20003;-78
2023/08/20 12:54:29;;;;;;;5.32;2.30;;;31.00;72.10;;;;;;7391082;19;19999;-79
2023/08/20 12:57:01;;;;;;;4.50;2.00;;;31.00;72.70;;;;;;7387900;19;20070;-80
2023/08/20 12:59:29;;;;;;;6.78;2.25;;;31.00;72.70;;;;;;7420325;19;20006;-80
2023/08/20 13:02:01;;;;;;;8.02;2.45;;;31.20;72.20;;;;;;7397032;19;20015;-79
2023/08/20 13:04:30;;;;;;;7.53;2.20;;;31.20;71.90;;;;;;7397251;19;20348;-79
2023/08/20 13:07:01;;;;;;;3.40;1.75;;;31.20;72.00;;;;;;7395909;19;20006;-78
2023/08/20 13:09:30;;;;;;;15.98;2.10;;;31.20;70.80;;;;;;7393197;19;20012;-78
2023/08/20 13:12:04;;;;;;;5.75;2.20;;;31.20;71.00;;;;;;7394744;19;20019;-79
2023/08/20 13:14:35;;;;;;;6.55;2.25;;;31.10;71.30;;;;;;7414706;19;20014;-78
2023/08/20 13:17:08;;;;;;;5.10;2.42;;;31.00;70.90;;;;;;7392708;19;20011;-79
2023/08/20 13:19:36;;;;;;;4.57;1.85;;;31.10;71.70;;;;;;7395130;19;20011;-78
2023/08/20 13:22:05;;;;;;;3.72;2.13;;;31.20;70.10;;;;;;7394078;19;20018;-78
2023/08/20 13:24:34;;;;;;;4.05;2.10;;;31.30;69.90;;;;;;7392059;19;20023;-78
2023/08/20 13:27:10;;;;;;;4.50;2.05;;;31.40;70.00;;;;;;7395921;19;20022;-78
2023/08/20 13:29:39;;;;;;;7.72;2.03;;;31.60;69.60;;;;;;7417140;19;20365;-78
2023/08/20 13:32:12;;;;;;;6.30;1.90;;;31.60;69.30;;;;;;7396919;19;20035;-79
2023/08/20 13:34:41;;;;;;;5.35;2.42;;;31.60;68.30;;;;;;7394830;19;20010;-79
2023/08/20 13:37:09;;;;;;;12.10;2.72;;;31.70;68.70;;;;;;7394266;19;20006;-79
2023/08/20 13:39:38;;;;;;;6.60;2.58;;;31.70;68.70;;;;;;7394501;19;20015;-79
2023/08/20 13:42:07;;;;;;;6.03;2.05;;;31.80;69.40;;;;;;7394341;19;20011;-79
2023/08/20 13:44:36;;;;;;;7.05;1.80;;;31.90;68.70;;;;;;7414520;19;20346;-78
2023/08/20 13:47:05;;;;;;;3.65;1.83;;;32.00;68.10;;;;;;7394308;19;20034;-78